Time;durP1;ratioP1;P1;durP2;ratioP2;P2;SDS_P1;SDS_P2;PMS_P1;PMS_P2;Temp;Humidity;BMP_temperature;BMP_pressure;BME280_temperature;BME280_humidity;BME280_pressure;Samples;Min_cycle;Max_cycle;Signal;HPM_P1;HPM_P2
2024/01/28 00:01:59;;;;;;;2.92;0.77;;;;;;;4.53;69.10;102527.25;5027342;28;20029;-62
2024/01/28 00:04:24;;;;;;;2.50;0.32;;;;;;;4.48;68.94;102526.56;5023902;28;20033;-63
2024/01/28 00:06:50;;;;;;;3.58;1.25;;;;;;;4.43;69.08;102520.72;5013157;28;20393;-62
2024/01/28 00:09:15;;;;;;;2.03;0.40;;;;;;;4.49;68.11;102523.94;5032246;28;20485;-62
2024/01/28 00:11:43;;;;;;;1.95;0.43;;;;;;;4.56;68.05;102522.81;5021615;28;20127;-62
2024/01/28 00:14:08;;;;;;;1.88;0.50;;;;;;;4.72;66.03;102517.94;5019023;28;20025;-63
2024/01/28 00:16:34;;;;;;;2.45;0.60;;;;;;;4.88;65.27;102525.94;5017733;28;20170;-62
2024/01/28 00:18:59;;;;;;;2.38;0.40;;;;;;;5.12;63.15;102521.56;5020985;28;20033;-62
2024/01/28 00:21:25;;;;;;;1.60;0.30;;;;;;;5.23;62.78;102527.13;5020675;28;20088;-62
2024/01/28 00:23:51;;;;;;;0.77;0.25;;;;;;;5.19;64.75;102533.38;5023559;28;20033;-62
2024/01/28 00:26:16;;;;;;;2.13;0.40;;;;;;;5.13;63.92;102534.44;5022254;28;21293;-62
2024/01/28 00:28:42;;;;;;;1.27;0.28;;;;;;;5.07;64.15;102526.06;5018968;28;20622;-62
2024/01/28 00:31:10;;;;;;;2.05;0.30;;;;;;;5.20;62.59;102522.13;5019484;28;20119;-62
2024/01/28 00:33:36;;;;;;;1.98;0.60;;;;;;;5.11;63.12;102527.66;5033065;28;20048;-62
2024/01/28 00:36:02;;;;;;;2.83;0.30;;;;;;;4.90;65.15;102532.72;5035743;28;20029;-62
2024/01/28 00:38:31;;;;;;;3.70;0.52;;;;;;;4.79;66.16;102531.44;5030660;28;20144;-62
2024/01/28 00:41:00;;;;;;;4.93;0.40;;;;;;;4.73;66.78;102534.25;5035232;28;20029;-62
2024/01/28 00:43:26;;;;;;;3.63;0.63;;;;;;;4.74;66.77;102531.59;5027753;28;20726;-63
2024/01/28 00:45:52;;;;;;;2.20;0.40;;;;;;;4.65;66.87;102535.38;5016149;28;20033;-62
2024/01/28 00:48:17;;;;;;;6.30;0.50;;;;;;;4.52;68.54;102533.31;5019250;28;20476;-62
2024/01/28 00:50:43;;;;;;;3.58;0.73;;;;;;;4.36;68.92;102533.00;5018194;28;20660;-62
2024/01/28 00:53:09;;;;;;;1.08;0.30;;;;;;;4.35;67.44;102536.47;5016388;28;20053;-62
2024/01/28 00:55:34;;;;;;;1.60;0.30;;;;;;;4.51;66.81;102531.63;5025561;28;20088;-62
2024/01/28 00:58:02;;;;;;;2.15;0.50;;;;;;;4.49;66.94;102538.56;5022277;28;20037;-62
2024/01/28 01:00:28;;;;;;;3.60;0.40;;;;;;;4.47;66.97;102536.03;5023789;28;20029;-63
2024/01/28 01:02:53;;;;;;;1.73;0.50;;;;;;;4.50;66.78;102545.41;5029606;28;20064;-63
2024/01/28 01:05:19;;;;;;;2.85;0.40;;;;;;;4.54;67.25;102541.84;5018336;28;20031;-62
2024/01/28 01:07:44;;;;;;;1.85;0.50;;;;;;;4.51;68.10;102553.09;5017594;28;20033;-62
2024/01/28 01:10:10;;;;;;;2.97;0.50;;;;;;;4.54;67.08;102547.00;5023703;28;20035;-62
2024/01/28 01:12:35;;;;;;;1.10;0.57;;;;;;;4.48;67.75;102544.63;5019881;28;20064;-62
2024/01/28 01:15:01;;;;;;;1.30;0.40;;;;;;;4.46;67.22;102546.41;5019109;28;20473;-62
2024/01/28 01:17:26;;;;;;;0.73;0.30;;;;;;;4.43;67.22;102554.28;5019930;28;20055;-62
2024/01/28 01:19:51;;;;;;;2.50;0.57;;;;;;;4.44;67.00;102550.78;5017466;28;20393;-62
2024/01/28 01:22:17;;;;;;;0.77;0.30;;;;;;;4.40;66.96;102562.13;5018941;28;20037;-62
2024/01/28 01:24:42;;;;;;;4.35;0.30;;;;;;;4.33;68.24;102552.00;5018347;28;20044;-62
2024/01/28 01:27:08;;;;;;;2.60;0.43;;;;;;;4.29;68.15;102557.31;5024152;28;20136;-62
2024/01/28 01:29:33;;;;;;;2.67;0.30;;;;;;;4.15;69.77;102563.00;5020208;28;20064;-62
2024/01/28 01:31:59;;;;;;;1.95;0.30;;;;;;;3.97;70.22;102561.88;5031500;28;20065;-62
2024/01/28 01:34:24;;;;;;;1.23;0.40;;;;;;;3.95;69.86;102571.38;5042658;28;20059;-62
2024/01/28 01:36:50;;;;;;;2.58;0.43;;;;;;;4.20;68.05;102562.84;5024455;28;20500;-62
2024/01/28 01:39:16;;;;;;;1.45;0.22;;;;;;;4.19;69.16;102558.56;5019894;28;20126;-62
2024/01/28 01:41:43;;;;;;;2.15;0.43;;;;;;;4.11;69.53;102558.81;5024658;28;20056;-62
2024/01/28 01:44:09;;;;;;;3.03;0.40;;;;;;;4.07;69.66;102557.25;5021615;28;20059;-62
2024/01/28 01:46:35;;;;;;;1.52;0.35;;;;;;;4.07;68.92;102559.81;5018876;28;21378;-62
2024/01/28 01:49:02;;;;;;;3.72;0.40;;;;;;;4.03;68.31;102560.81;5018660;28;20496;-62
2024/01/28 01:51:28;;;;;;;1.80;0.35;;;;;;;4.03;68.58;102554.81;5018906;28;20111;-61
2024/01/28 01:53:55;;;;;;;0.95;0.22;;;;;;;4.02;68.52;102556.56;5024613;28;20129;-62
2024/01/28 01:56:20;;;;;;;1.90;0.50;;;;;;;4.00;68.16;102551.44;5023716;28;20396;-62
2024/01/28 01:58:46;;;;;;;3.03;0.40;;;;;;;3.99;67.40;102559.22;5025814;28;20033;-62
2024/01/28 02:01:16;;;;;;;1.13;0.50;;;;;;;3.98;67.28;102554.97;5021025;28;20453;-62
2024/01/28 02:03:45;;;;;;;1.10;0.40;;;;;;;4.00;67.37;102550.59;5023835;28;20761;-62
2024/01/28 02:06:11;;;;;;;0.60;0.20;;;;;;;3.95;67.72;102557.66;5018981;28;20032;-62
2024/01/28 02:08:37;;;;;;;1.70;0.45;;;;;;;3.96;66.59;102559.34;5017126;28;20044;-62
2024/01/28 02:11:05;;;;;;;1.08;0.20;;;;;;;3.91;67.40;102566.38;5016826;28;20028;-62
2024/01/28 02:13:30;;;;;;;1.52;0.22;;;;;;;3.87;67.21;102565.63;5023460;28;20042;-62
2024/01/28 02:15:56;;;;;;;1.48;0.30;;;;;;;3.89;67.28;102552.69;5018167;28;20123;-62
2024/01/28 02:18:21;;;;;;;1.40;0.32;;;;;;;3.78;67.46;102570.28;5021444;28;20040;-62
2024/01/28 02:20:46;;;;;;;1.50;0.43;;;;;;;3.78;68.00;102565.13;5013859;28;20037;-62
2024/01/28 02:23:21;;;;;;;0.93;0.30;;;;;;;3.80;67.01;102568.47;5036116;28;20769;-62
2024/01/28 02:25:46;;;;;;;2.00;0.20;;;;;;;3.85;67.26;102574.31;5021531;28;20029;-62
2024/01/28 02:28:12;;;;;;;0.68;0.30;;;;;;;3.87;66.70;102570.78;5027440;28;20043;-62
2024/01/28 02:30:37;;;;;;;1.85;0.20;;;;;;;3.89;66.20;102579.31;5021142;28;20887;-63
2024/01/28 02:33:02;;;;;;;2.30;0.45;;;;;;;3.86;66.38;102573.41;5033663;28;20053;-62
2024/01/28 02:35:28;;;;;;;0.60;0.28;;;;;;;3.81;66.32;102575.31;5024354;28;20033;-62
2024/01/28 02:37:53;;;;;;;1.90;0.70;;;;;;;3.76;66.72;102584.94;5025403;28;20029;-62
2024/01/28 02:40:20;;;;;;;2.15;0.40;;;;;;;3.68;67.67;102572.31;5036780;28;20040;-62
2024/01/28 02:42:46;;;;;;;2.67;0.32;;;;;;;3.61;67.97;102574.22;5027762;28;20591;-62
2024/01/28 02:45:11;;;;;;;1.42;0.50;;;;;;;3.53;67.64;102571.03;5021050;28;20033;-62
2024/01/28 02:47:37;;;;;;;1.20;0.30;;;;;;;3.48;68.74;102567.75;5021492;28;20029;-62
2024/01/28 02:50:02;;;;;;;3.20;0.52;;;;;;;3.52;68.12;102569.34;5022416;28;20082;-61
2024/01/28 02:52:27;;;;;;;2.33;0.40;;;;;;;3.56;68.09;102570.09;5021950;28;20136;-62
2024/01/28 02:54:53;;;;;;;0.45;0.20;;;;;;;3.54;68.12;102571.88;5025993;28;20041;-62
2024/01/28 02:57:18;;;;;;;2.35;0.40;;;;;;;3.49;67.92;102574.59;5024638;28;20033;-62
2024/01/28 02:59:44;;;;;;;1.00;0.30;;;;;;;3.48;68.32;102572.06;5034701;28;20505;-62
2024/01/28 03:02:10;;;;;;;1.13;0.20;;;;;;;3.45;68.21;102572.16;5033505;28;20465;-62
2024/01/28 03:04:38;;;;;;;3.90;0.30;;;;;;;3.37;68.61;102577.56;5025914;28;20072;-62
2024/01/28 03:07:04;;;;;;;2.90;0.57;;;;;;;3.30;69.24;102574.34;5026789;28;21712;-62
2024/01/28 03:09:29;;;;;;;1.15;0.38;;;;;;;3.28;69.31;102580.44;5024552;28;20097;-62
2024/01/28 03:11:54;;;;;;;2.33;0.30;;;;;;;3.29;68.51;102577.81;5023241;28;20037;-62
2024/01/28 03:14:20;;;;;;;2.95;0.30;;;;;;;3.26;68.65;102577.91;5035306;28;20035;-62
2024/01/28 03:16:46;;;;;;;1.65;0.20;;;;;;;3.22;68.74;102585.78;5024706;28;20041;-62
2024/01/28 03:19:12;;;;;;;1.23;0.30;;;;;;;3.18;69.01;102584.19;5021725;28;20033;-62
2024/01/28 03:21:37;;;;;;;1.42;0.40;;;;;;;3.16;69.41;102589.38;5021377;28;20536;-62
2024/01/28 03:24:03;;;;;;;2.72;0.40;;;;;;;3.13;69.12;102584.31;5021626;28;20488;-61
2024/01/28 03:26:28;;;;;;;1.85;0.70;;;;;;;3.10;69.98;102588.72;5019361;28;20053;-62
2024/01/28 03:28:54;;;;;;;1.65;0.30;;;;;;;2.99;70.01;102591.59;5020615;28;20429;-62
2024/01/28 03:31:19;;;;;;;3.10;0.22;;;;;;;2.95;69.61;102587.41;5023263;28;20052;-62
2024/01/28 03:33:46;;;;;;;2.95;0.40;;;;;;;3.00;68.88;102590.69;5024443;28;20041;-62
2024/01/28 03:36:11;;;;;;;1.40;0.20;;;;;;;3.05;68.50;102593.16;5026275;28;20048;-62
2024/01/28 03:38:39;;;;;;;1.38;0.20;;;;;;;3.08;67.19;102595.63;5020646;28;20036;-62
2024/01/28 03:41:05;;;;;;;0.95;0.20;;;;;;;3.10;66.92;102596.44;5041106;28;20362;-62
2024/01/28 03:43:31;;;;;;;0.65;0.20;;;;;;;3.15;67.19;102590.25;5021705;28;20892;-62
2024/01/28 03:45:56;;;;;;;1.02;0.30;;;;;;;3.15;67.12;102590.25;5023386;28;20211;-62
2024/01/28 03:48:22;;;;;;;1.85;0.47;;;;;;;3.15;67.69;102590.25;5019853;28;20343;-62
2024/01/28 03:50:47;;;;;;;0.73;0.30;;;;;;;3.14;67.80;102592.88;5022337;28;20040;-62
2024/01/28 03:53:13;;;;;;;2.53;0.30;;;;;;;3.14;68.01;102587.72;5021131;28;20044;-62
2024/01/28 03:55:38;;;;;;;1.85;0.20;;;;;;;3.11;67.37;102587.81;5019946;28;20037;-61
2024/01/28 03:58:04;;;;;;;1.30;0.20;;;;;;;3.06;67.67;102589.69;5025655;28;20457;-62
2024/01/28 04:00:29;;;;;;;1.63;0.25;;;;;;;3.05;67.14;102593.16;5025476;28;20044;-62
2024/01/28 04:02:56;;;;;;;0.85;0.20;;;;;;;3.10;67.32;102605.00;5030263;28;20032;-62
2024/01/28 04:05:25;;;;;;;1.27;0.30;;;;;;;3.07;67.74;102601.66;5022346;28;20501;-62
2024/01/28 04:07:50;;;;;;;0.80;0.28;;;;;;;3.01;67.65;102602.69;5020200;28;20062;-62
2024/01/28 04:10:16;;;;;;;4.00;0.30;;;;;;;2.98;67.71;102600.19;5020320;28;20028;-62
2024/01/28 04:12:42;;;;;;;1.02;0.20;;;;;;;2.92;67.68;102608.09;5023062;28;20048;-62
2024/01/28 04:15:07;;;;;;;0.90;0.20;;;;;;;2.88;68.70;102602.19;5019297;28;20128;-62
2024/01/28 04:17:33;;;;;;;2.25;0.30;;;;;;;2.82;68.48;102604.97;5024742;28;20033;-62
2024/01/28 04:19:58;;;;;;;1.00;0.20;;;;;;;2.73;68.52;102607.78;5019928;28;20048;-62
2024/01/28 04:22:24;;;;;;;1.20;0.20;;;;;;;2.73;68.66;102612.94;5021784;28;20043;-62
2024/01/28 04:24:49;;;;;;;1.45;0.28;;;;;;;2.71;69.43;102613.84;5016371;28;20056;-62
2024/01/28 04:27:14;;;;;;;2.85;0.47;;;;;;;2.61;69.04;102613.25;5017033;28;20560;-62
2024/01/28 04:29:41;;;;;;;0.90;0.30;;;;;;;2.56;69.24;102615.09;5017750;28;20041;-62
2024/01/28 04:32:10;;;;;;;3.83;0.50;;;;;;;2.58;68.87;102624.47;5027913;28;20459;-62
2024/01/28 04:34:36;;;;;;;1.25;0.30;;;;;;;2.66;68.18;102621.69;5025742;28;20037;-62
2024/01/28 04:37:01;;;;;;;0.70;0.30;;;;;;;2.82;67.56;102622.97;5034249;28;20033;-61
2024/01/28 04:39:27;;;;;;;2.55;0.32;;;;;;;2.75;67.89;102621.47;5036318;28;20082;-61
2024/01/28 04:41:53;;;;;;;1.85;0.35;;;;;;;2.73;67.58;102628.38;5022091;28;20041;-62
2024/01/28 04:44:21;;;;;;;1.45;0.30;;;;;;;2.72;67.59;102631.00;5024693;28;21550;-62
2024/01/28 04:46:48;;;;;;;0.70;0.20;;;;;;;2.69;68.11;102623.34;5023802;28;20040;-62
2024/01/28 04:49:14;;;;;;;1.63;0.40;;;;;;;2.64;67.94;102629.47;5019294;28;20055;-61
2024/01/28 04:51:39;;;;;;;1.50;0.28;;;;;;;2.60;68.81;102621.88;5019686;28;20032;-62
2024/01/28 04:54:05;;;;;;;0.47;0.10;;;;;;;2.56;68.09;102628.81;5019766;28;20048;-62
2024/01/28 04:56:31;;;;;;;1.25;0.30;;;;;;;2.53;68.95;102631.47;5022588;28;20461;-62
2024/01/28 04:58:57;;;;;;;1.58;0.20;;;;;;;2.48;69.13;102628.16;5026981;28;20040;-62
2024/01/28 05:01:23;;;;;;;2.08;0.30;;;;;;;2.42;69.89;102622.34;5021590;28;20127;-62
2024/01/28 05:03:49;;;;;;;1.67;0.20;;;;;;;2.47;69.32;102625.63;5025452;28;20948;-62
2024/01/28 05:06:14;;;;;;;2.97;0.43;;;;;;;2.51;68.10;102633.25;5019260;28;20079;-62
2024/01/28 05:08:40;;;;;;;0.73;0.13;;;;;;;2.51;68.58;102637.53;5018486;28;22057;-62
2024/01/28 05:11:06;;;;;;;1.70;0.10;;;;;;;2.46;68.96;102640.22;5019106;28;20117;-62
2024/01/28 05:13:32;;;;;;;3.95;0.20;;;;;;;2.47;68.76;102636.78;5023187;28;20090;-62
2024/01/28 05:15:57;;;;;;;1.73;0.30;;;;;;;2.40;69.98;102642.13;5019152;28;20503;-62
2024/01/28 05:18:23;;;;;;;0.98;0.30;;;;;;;2.41;68.95;102646.38;5021110;28;20091;-61
2024/01/28 05:20:48;;;;;;;1.25;0.20;;;;;;;2.44;68.54;102649.72;5018491;28;20115;-62
2024/01/28 05:23:14;;;;;;;0.50;0.10;;;;;;;2.45;69.10;102640.28;5020073;28;20040;-61
2024/01/28 05:25:39;;;;;;;3.25;0.20;;;;;;;2.44;68.81;102652.28;5023659;28;20527;-62
2024/01/28 05:28:07;;;;;;;1.25;0.22;;;;;;;2.40;68.58;102649.84;5021199;28;20066;-62
2024/01/28 05:30:32;;;;;;;0.98;0.22;;;;;;;2.39;68.69;102655.88;5017484;28;20037;-61
2024/01/28 05:32:58;;;;;;;3.15;0.17;;;;;;;2.37;69.81;102662.78;5026777;28;20043;-62
2024/01/28 05:35:24;;;;;;;2.10;0.20;;;;;;;2.31;68.78;102656.94;5025953;28;20218;-62
2024/01/28 05:37:49;;;;;;;0.65;0.10;;;;;;;2.29;69.58;102663.84;5028332;28;20029;-62
2024/01/28 05:40:15;;;;;;;1.27;0.10;;;;;;;2.28;69.37;102658.72;5016097;28;20040;-62
2024/01/28 05:42:42;;;;;;;1.52;0.20;;;;;;;2.28;68.66;102667.28;5019218;28;20039;-62
2024/01/28 05:45:09;;;;;;;1.55;0.45;;;;;;;2.24;69.57;102664.84;5016965;28;20030;-62
2024/01/28 05:47:34;;;;;;;1.38;0.30;;;;;;;2.27;69.18;102673.31;5015918;28;20103;-62
2024/01/28 05:50:00;;;;;;;1.05;0.20;;;;;;;2.27;68.84;102678.47;5023250;28;20036;-61
2024/01/28 05:52:25;;;;;;;1.13;0.10;;;;;;;2.30;68.04;102688.69;5020878;28;20037;-62
2024/01/28 05:54:51;;;;;;;1.30;0.28;;;;;;;2.28;68.83;102692.16;5022870;28;20037;-62
2024/01/28 05:57:17;;;;;;;0.80;0.20;;;;;;;2.28;68.39;102695.59;5024927;28;20147;-61
2024/01/28 05:59:42;;;;;;;0.73;0.17;;;;;;;2.28;68.42;102687.88;5029038;28;21457;-61
2024/01/28 06:02:07;;;;;;;0.90;0.20;;;;;;;2.25;68.56;102677.66;5025886;28;20800;-62
2024/01/28 06:04:33;;;;;;;1.00;0.28;;;;;;;2.23;68.49;102681.16;5029584;28;20080;-62
2024/01/28 06:07:00;;;;;;;1.10;0.20;;;;;;;2.20;68.94;102684.63;5023810;28;20080;-62
2024/01/28 06:09:26;;;;;;;0.80;0.20;;;;;;;2.18;69.12;102691.53;5025609;28;20044;-62
2024/01/28 06:11:51;;;;;;;2.33;0.38;;;;;;;2.16;69.06;102689.88;5024682;28;20047;-62
2024/01/28 06:14:17;;;;;;;2.15;0.20;;;;;;;2.19;68.63;102694.97;5023730;28;20847;-62
2024/01/28 06:16:42;;;;;;;3.40;0.20;;;;;;;2.18;68.79;102691.53;5020342;28;20041;-62
2024/01/28 06:19:08;;;;;;;0.73;0.20;;;;;;;2.21;68.38;102700.91;5028021;28;20045;-62
2024/01/28 06:21:33;;;;;;;1.92;0.20;;;;;;;2.15;68.61;102701.06;5021287;28;20049;-61
2024/01/28 06:23:59;;;;;;;1.15;0.30;;;;;;;2.14;68.00;102697.63;5021538;28;20075;-62
2024/01/28 06:26:24;;;;;;;1.42;0.13;;;;;;;2.13;68.75;102703.66;5022361;28;20491;-61
2024/01/28 06:28:50;;;;;;;1.27;0.10;;;;;;;2.12;68.56;102708.84;5020403;28;20091;-62
2024/01/28 06:31:15;;;;;;;2.20;0.20;;;;;;;2.13;68.38;102708.81;5022619;28;20033;-62
2024/01/28 06:33:43;;;;;;;1.48;0.30;;;;;;;2.11;69.09;102708.00;5027994;28;20873;-62
2024/01/28 06:36:08;;;;;;;0.77;0.20;;;;;;;2.08;69.15;102704.66;5031662;28;20047;-62
2024/01/28 06:38:33;;;;;;;2.58;0.45;;;;;;;2.00;69.62;102715.94;5040586;28;20037;-62
2024/01/28 06:41:00;;;;;;;1.45;0.40;;;;;;;1.97;69.13;102707.47;5026411;28;20234;-62
2024/01/28 06:43:25;;;;;;;2.58;0.32;;;;;;;1.99;69.92;102721.13;5042716;28;20029;-62
2024/01/28 06:45:52;;;;;;;2.25;0.20;;;;;;;1.97;69.58;102717.75;5030500;28;20415;-62
2024/01/28 06:48:17;;;;;;;1.60;0.40;;;;;;;1.98;69.15;102719.44;5021839;28;20780;-62
2024/01/28 06:50:43;;;;;;;2.55;0.40;;;;;;;1.98;69.66;102719.44;5025672;28;20047;-62
2024/01/28 06:53:08;;;;;;;1.08;0.30;;;;;;;2.09;67.73;102727.75;5022500;28;20040;-62
2024/01/28 06:55:34;;;;;;;0.70;0.20;;;;;;;2.17;67.77;102732.72;5023390;28;20028;-62
2024/01/28 06:58:00;;;;;;;0.82;0.20;;;;;;;2.16;68.37;102729.31;5020204;28;20041;-61
2024/01/28 07:00:26;;;;;;;2.92;0.20;;;;;;;2.13;68.40;102734.53;5020067;28;20140;-62
2024/01/28 07:02:53;;;;;;;3.00;0.20;;;;;;;2.10;69.18;102729.44;5025508;28;20041;-62
2024/01/28 07:05:20;;;;;;;1.77;0.63;;;;;;;2.04;69.04;102739.03;5018991;28;20418;-62
2024/01/28 07:07:45;;;;;;;1.27;0.20;;;;;;;2.05;69.09;102738.16;5018094;28;20051;-62
2024/01/28 07:10:10;;;;;;;4.25;0.28;;;;;;;2.08;69.12;102736.34;5020646;28;20040;-61
2024/01/28 07:12:37;;;;;;;2.22;0.30;;;;;;;2.08;69.12;102735.50;5036175;28;20464;-62
2024/01/28 07:15:02;;;;;;;1.40;0.30;;;;;;;2.13;69.01;102741.38;5019224;28;20036;-62
2024/01/28 07:17:28;;;;;;;1.20;0.20;;;;;;;2.08;69.74;102738.91;5016891;28;20033;-61
2024/01/28 07:19:53;;;;;;;1.60;0.20;;;;;;;2.09;69.13;102743.19;5017956;28;20526;-62
2024/01/28 07:22:19;;;;;;;0.80;0.30;;;;;;;2.05;69.75;102745.84;5031056;28;20033;-62
2024/01/28 07:24:44;;;;;;;1.70;0.30;;;;;;;2.08;68.73;102744.06;5021215;28;21196;-62
2024/01/28 07:27:09;;;;;;;2.03;0.20;;;;;;;2.11;69.17;102749.13;5018514;28;20052;-62
2024/01/28 07:29:35;;;;;;;1.05;0.20;;;;;;;2.15;68.78;102757.63;5016755;28;20032;-61
2024/01/28 07:32:00;;;;;;;0.68;0.30;;;;;;;2.20;67.99;102756.66;5017219;28;20049;-62
2024/01/28 07:34:26;;;;;;;1.17;0.60;;;;;;;2.27;68.58;102757.34;5026321;28;20693;-62
2024/01/28 07:36:54;;;;;;;1.45;0.30;;;;;;;2.36;66.81;102756.31;5023798;28;20785;-62
2024/01/28 07:39:19;;;;;;;1.35;0.28;;;;;;;2.45;66.74;102748.34;5020103;28;20033;-62
2024/01/28 07:41:46;;;;;;;0.80;0.30;;;;;;;2.51;66.05;102749.03;5019523;28;20174;-62
2024/01/28 07:44:12;;;;;;;0.90;0.20;;;;;;;2.59;66.46;102754.00;5021268;28;22073;-63
2024/01/28 07:46:37;;;;;;;2.58;0.30;;;;;;;2.63;65.92;102756.47;5017042;28;20107;-63
2024/01/28 07:49:03;;;;;;;0.52;0.20;;;;;;;2.67;65.74;102760.66;5018170;28;20550;-63
2024/01/28 07:51:28;;;;;;;0.88;0.20;;;;;;;2.73;65.60;102759.66;5018898;28;20160;-63
2024/01/28 07:53:54;;;;;;;0.93;0.20;;;;;;;2.81;65.75;102762.03;5022070;28;20086;-63
2024/01/28 07:56:19;;;;;;;1.42;0.30;;;;;;;2.90;64.58;102772.94;5016587;28;20037;-63
2024/01/28 07:58:45;;;;;;;0.77;0.10;;;;;;;2.98;64.63;102758.13;5014789;28;21137;-63
2024/01/28 08:01:10;;;;;;;0.98;0.40;;;;;;;2.97;65.71;102769.31;5016529;28;21284;-64
2024/01/28 08:03:35;;;;;;;0.70;0.15;;;;;;;2.97;64.36;102769.31;5027581;28;20039;-64
2024/01/28 08:06:01;;;;;;;0.80;0.20;;;;;;;3.02;65.04;102761.47;5020282;28;20033;-64
2024/01/28 08:08:26;;;;;;;1.25;0.40;;;;;;;3.10;64.78;102766.44;5021581;28;20099;-64
2024/01/28 08:10:52;;;;;;;3.38;0.40;;;;;;;3.15;64.35;102767.16;5015527;28;20040;-64
2024/01/28 08:13:19;;;;;;;1.40;0.52;;;;;;;3.22;64.99;102769.53;5018121;28;20036;-64
2024/01/28 08:15:45;;;;;;;2.72;0.40;;;;;;;3.31;63.39;102763.25;5013679;28;20843;-64
2024/01/28 08:18:11;;;;;;;2.00;0.38;;;;;;;3.43;63.24;102762.91;5018833;28;20151;-64
2024/01/28 08:20:37;;;;;;;0.93;0.17;;;;;;;3.52;62.86;102764.41;5016257;28;20405;-64
2024/01/28 08:23:03;;;;;;;0.98;0.30;;;;;;;3.59;62.38;102766.75;5036120;28;20028;-64
2024/01/28 08:25:29;;;;;;;2.35;0.20;;;;;;;3.64;63.82;102769.22;5020445;28;20035;-64
2024/01/28 08:27:54;;;;;;;0.95;0.35;;;;;;;3.71;62.73;102777.63;5033993;28;20389;-64
2024/01/28 08:30:22;;;;;;;1.77;0.40;;;;;;;3.76;63.29;102778.34;5022495;28;20512;-64
2024/01/28 08:32:48;;;;;;;0.80;0.30;;;;;;;3.86;61.47;102769.41;5029266;28;20072;-64
2024/01/28 08:35:15;;;;;;;0.73;0.20;;;;;;;3.96;60.92;102768.25;5034646;28;20123;-64
2024/01/28 08:37:40;;;;;;;1.70;0.30;;;;;;;4.08;61.43;102770.47;5044473;28;20106;-66
2024/01/28 08:40:09;;;;;;;5.38;0.40;;;;;;;4.19;60.29;102771.00;5038070;28;20925;-65
2024/01/28 08:42:35;;;;;;;2.05;0.40;;;;;;;4.25;60.58;102775.13;5026356;28;20057;-64
2024/01/28 08:45:00;;;;;;;2.08;0.30;;;;;;;4.33;60.96;102773.97;5022928;28;20033;-64
2024/01/28 08:47:26;;;;;;;2.00;0.30;;;;;;;4.45;59.74;102782.22;5022640;28;20029;-64
2024/01/28 08:49:52;;;;;;;1.10;0.30;;;;;;;4.46;59.97;102786.47;5037343;28;20033;-64
2024/01/28 08:52:19;;;;;;;0.80;0.30;;;;;;;4.47;60.82;102788.19;5027281;28;20037;-64
2024/01/28 08:54:45;;;;;;;0.55;0.20;;;;;;;4.50;60.23;102788.09;5026555;28;20565;-64
2024/01/28 08:57:11;;;;;;;4.50;0.40;;;;;;;4.54;60.79;102784.50;5026085;28;20037;-64
2024/01/28 08:59:37;;;;;;;1.65;0.30;;;;;;;4.61;59.95;102786.84;5029345;28;20059;-63
2024/01/28 09:02:03;;;;;;;1.15;0.20;;;;;;;4.73;59.80;102780.41;5030190;28;20076;-63
2024/01/28 09:04:28;;;;;;;2.92;0.32;;;;;;;4.83;59.99;102784.38;5023408;28;20068;-63
2024/01/28 09:06:54;;;;;;;1.98;0.65;;;;;;;4.89;59.16;102789.34;5027233;28;20120;-67
2024/01/28 09:09:19;;;;;;;1.75;0.40;;;;;;;4.93;59.15;102788.34;5023869;28;21798;-63
2024/01/28 09:11:45;;;;;;;2.42;0.77;;;;;;;5.02;59.24;102791.53;5041273;28;20041;-63
2024/01/28 09:14:10;;;;;;;3.95;0.45;;;;;;;5.18;59.55;102793.53;5026082;28;20060;-63
2024/01/28 09:16:36;;;;;;;1.42;0.30;;;;;;;5.28;58.55;102800.03;5025271;28;20067;-63
2024/01/28 09:19:03;;;;;;;2.25;0.70;;;;;;;5.31;57.68;102802.53;5033080;28;20599;-64
2024/01/28 09:21:30;;;;;;;2.63;0.60;;;;;;;5.39;58.49;102798.81;5022103;28;20029;-63
2024/01/28 09:23:56;;;;;;;1.95;0.30;;;;;;;5.47;57.75;102800.25;5021926;28;20041;-63
2024/01/28 09:26:21;;;;;;;5.15;0.50;;;;;;;5.52;58.02;102798.34;5025739;28;20043;-64
2024/01/28 09:28:46;;;;;;;4.55;1.20;;;;;;;5.59;57.35;102802.41;5028357;28;21839;-63
2024/01/28 09:31:12;;;;;;;1.10;0.38;;;;;;;5.68;57.89;102793.44;5028258;28;20477;-64
2024/01/28 09:33:38;;;;;;;6.72;1.35;;;;;;;5.82;58.38;102805.88;5039349;28;20045;-64
2024/01/28 09:36:03;;;;;;;2.03;0.93;;;;;;;5.90;58.34;102819.41;5035529;28;20065;-63
2024/01/28 09:38:29;;;;;;;3.25;0.77;;;;;;;6.02;56.63;102807.75;5051635;28;20061;-63
2024/01/28 09:40:54;;;;;;;7.07;1.63;;;;;;;6.10;56.09;102814.31;5052056;28;20116;-63
2024/01/28 09:43:29;;;;;;;3.90;0.50;;;;;;;6.12;55.24;102819.44;5051981;28;20491;-63
2024/01/28 09:45:55;;;;;;;3.60;0.90;;;;;;;6.19;57.36;102810.50;5051452;28;20031;-63
2024/01/28 09:48:21;;;;;;;4.82;1.33;;;;;;;6.26;57.42;102817.16;5039495;28;20120;-63
2024/01/28 09:50:47;;;;;;;4.93;1.15;;;;;;;6.36;55.35;102809.88;5023853;28;20033;-63
2024/01/28 09:53:13;;;;;;;1.98;0.80;;;;;;;6.46;55.47;102818.97;5029864;28;20089;-63
2024/01/28 09:55:40;;;;;;;3.25;0.85;;;;;;;6.46;56.89;102824.16;5027536;28;20033;-63
2024/01/28 09:58:05;;;;;;;2.92;0.40;;;;;;;6.60;55.32;102819.25;5036573;28;20440;-63
2024/01/28 10:00:31;;;;;;;2.03;0.43;;;;;;;6.65;56.71;102812.13;5029478;28;20037;-62
2024/01/28 10:02:57;;;;;;;3.50;0.50;;;;;;;6.72;56.11;102816.16;5024484;28;20025;-63
2024/01/28 10:05:22;;;;;;;5.60;1.17;;;;;;;6.80;55.07;102814.09;5024314;28;20109;-63
2024/01/28 10:07:49;;;;;;;4.95;1.42;;;;;;;6.91;55.33;102822.28;5044036;28;20389;-63
2024/01/28 10:10:17;;;;;;;18.73;4.32;;;;;;;7.05;55.27;102818.28;5031135;28;20040;-63
2024/01/28 10:12:43;;;;;;;9.68;2.33;;;;;;;7.08;54.98;102813.81;5030737;28;20506;-63
2024/01/28 10:15:20;;;;;;;3.85;1.48;;;;;;;7.18;52.76;102809.03;5025238;28;20111;-63
2024/01/28 10:17:50;;;;;;;3.55;0.70;;;;;;;7.48;53.62;102809.47;5029295;28;20036;-63
2024/01/28 10:20:20;;;;;;;2.85;0.60;;;;;;;7.52;55.16;102805.84;5026079;28;20076;-63
2024/01/28 10:22:46;;;;;;;2.90;1.05;;;;;;;7.47;54.07;102798.25;5025032;28;20044;-62
2024/01/28 10:25:15;;;;;;;3.80;1.05;;;;;;;7.49;55.46;102793.00;5028008;28;20047;-62
2024/01/28 10:27:41;;;;;;;2.25;0.40;;;;;;;7.60;53.48;102791.59;5032246;28;20560;-62
2024/01/28 10:30:07;;;;;;;1.38;0.40;;;;;;;7.79;51.75;102795.97;5024521;28;20021;-63
2024/01/28 10:32:33;;;;;;;2.95;0.47;;;;;;;7.83;52.98;102789.72;5035381;28;20046;-63
2024/01/28 10:34:58;;;;;;;2.85;0.88;;;;;;;7.93;51.89;102793.59;5029713;28;20112;-63
2024/01/28 10:37:32;;;;;;;2.17;0.50;;;;;;;7.99;52.31;102785.50;5027041;28;20037;-63
2024/01/28 10:40:05;;;;;;;3.03;1.08;;;;;;;8.16;51.91;102785.53;5048032;28;20032;-63
2024/01/28 10:42:35;;;;;;;2.55;1.02;;;;;;;8.21;51.54;102783.56;5032050;28;20041;-63
2024/01/28 10:45:04;;;;;;;1.83;0.50;;;;;;;8.23;51.39;102776.53;5024668;28;20045;-62
2024/01/28 10:47:33;;;;;;;5.78;2.20;;;;;;;8.38;51.68;102769.81;5023191;28;20041;-63
2024/01/28 10:50:00;;;;;;;5.68;1.48;;;;;;;8.32;52.72;102763.16;5023819;28;20150;-63
2024/01/28 10:52:26;;;;;;;1.85;0.50;;;;;;;8.35;51.89;102763.94;5026797;28;20029;-63
2024/01/28 10:54:52;;;;;;;1.27;0.40;;;;;;;8.49;50.81;102764.94;5043805;28;20127;-63
2024/01/28 10:57:23;;;;;;;1.25;0.45;;;;;;;8.77;52.13;102767.00;5033112;28;20033;-63
2024/01/28 10:59:48;;;;;;;2.08;0.40;;;;;;;8.74;51.53;102761.09;5044732;28;20068;-63
2024/01/28 11:02:15;;;;;;;1.63;0.40;;;;;;;8.95;47.41;102758.28;5039677;28;20036;-63
2024/01/28 11:04:40;;;;;;;0.80;0.20;;;;;;;9.02;47.11;102760.53;5045352;28;20025;-63
2024/01/28 11:07:06;;;;;;;1.58;0.20;;;;;;;8.93;49.84;102757.50;5045950;28;20033;-63
2024/01/28 11:09:32;;;;;;;4.60;1.02;;;;;;;8.86;50.59;102748.34;5047706;28;20040;-63
2024/01/28 11:11:58;;;;;;;4.32;1.00;;;;;;;8.99;49.95;102751.97;5048131;28;20040;-63
2024/01/28 11:14:27;;;;;;;5.38;0.73;;;;;;;9.06;49.77;102747.31;5047171;28;20036;-65
2024/01/28 11:16:53;;;;;;;5.15;1.13;;;;;;;9.20;50.68;102738.78;5039258;28;20352;-66
2024/01/28 11:19:18;;;;;;;20.60;3.05;;;;;;;9.31;51.08;102746.88;5021088;28;20032;-65
2024/01/28 11:21:51;;;;;;;2.97;0.45;;;;;;;9.31;48.11;102739.91;5023075;28;20059;-65
2024/01/28 11:24:17;;;;;;;7.75;1.65;;;;;;;9.39;51.85;102739.50;5021840;28;20120;-68
2024/01/28 11:26:47;;;;;;;5.05;1.40;;;;;;;9.41;49.13;102740.25;5023276;28;20039;-65
2024/01/28 11:29:15;;;;;;;3.95;0.55;;;;;;;9.39;52.22;102743.88;5028316;28;20068;-65